sensor_id;sensor_type;location;lat;lon;timestamp;temperature;humidity
22633;DHT22;11483;55.828;37.488;2023-05-10T00:00:17;10.50;56.40
22633;DHT22;11483;55.828;37.488;2023-05-10T00:03:03;10.60;55.00
22633;DHT22;11483;55.828;37.488;2023-05-10T00:12:50;10.60;54.80
22633;DHT22;11483;55.828;37.488;2023-05-10T00:15:42;11.10;55.40
22633;DHT22;11483;55.828;37.488;2023-05-10T00:18:08;10.60;55.60
22633;DHT22;11483;55.828;37.488;2023-05-10T00:20:34;10.60;55.70
22633;DHT22;11483;55.828;37.488;2023-05-10T00:23:00;10.50;57.50
22633;DHT22;11483;55.828;37.488;2023-05-10T00:25:26;10.50;58.20
22633;DHT22;11483;55.828;37.488;2023-05-10T00:27:51;10.50;58.60
22633;DHT22;11483;55.828;37.488;2023-05-10T00:30:17;10.50;57.60
22633;DHT22;11483;55.828;37.488;2023-05-10T00:32:44;10.40;56.80
22633;DHT22;11483;55.828;37.488;2023-05-10T00:35:10;10.40;56.90
22633;DHT22;11483;55.828;37.488;2023-05-10T00:37:36;10.40;57.10
22633;DHT22;11483;55.828;37.488;2023-05-10T00:40:02;10.30;57.20
22633;DHT22;11483;55.828;37.488;2023-05-10T00:42:28;10.30;57.20
22633;DHT22;11483;55.828;37.488;2023-05-10T00:44:54;10.30;57.50
22633;DHT22;11483;55.828;37.488;2023-05-10T00:47:20;10.20;59.00
22633;DHT22;11483;55.828;37.488;2023-05-10T00:49:46;10.20;58.80
22633;DHT22;11483;55.828;37.488;2023-05-10T00:52:11;10.20;59.10
22633;DHT22;11483;55.828;37.488;2023-05-10T00:54:37;10.10;59.30
22633;DHT22;11483;55.828;37.488;2023-05-10T00:57:03;10.10;59.70
22633;DHT22;11483;55.828;37.488;2023-05-10T00:59:29;10.00;59.70
22633;DHT22;11483;55.828;37.488;2023-05-10T01:01:56;10.00;59.90
22633;DHT22;11483;55.828;37.488;2023-05-10T01:04:23;9.90;60.10
22633;DHT22;11483;55.828;37.488;2023-05-10T01:06:52;9.90;60.30
22633;DHT22;11483;55.828;37.488;2023-05-10T01:09:19;9.90;60.30
22633;DHT22;11483;55.828;37.488;2023-05-10T01:11:45;9.90;60.70
22633;DHT22;11483;55.828;37.488;2023-05-10T01:14:11;9.90;61.20
22633;DHT22;11483;55.828;37.488;2023-05-10T01:16:39;9.80;60.90
22633;DHT22;11483;55.828;37.488;2023-05-10T01:19:26;9.80;61.20
22633;DHT22;11483;55.828;37.488;2023-05-10T01:33:17;9.60;62.40
22633;DHT22;11483;55.828;37.488;2023-05-10T01:35:49;9.60;62.30
22633;DHT22;11483;55.828;37.488;2023-05-10T01:38:22;9.60;62.60
22633;DHT22;11483;55.828;37.488;2023-05-10T01:43:53;9.60;62.80
22633;DHT22;11483;55.828;37.488;2023-05-10T01:46:27;9.60;62.40
22633;DHT22;11483;55.828;37.488;2023-05-10T01:48:55;9.60;62.20
22633;DHT22;11483;55.828;37.488;2023-05-10T01:51:24;9.50;62.50
22633;DHT22;11483;55.828;37.488;2023-05-10T01:53:57;9.50;63.20
22633;DHT22;11483;55.828;37.488;2023-05-10T01:56:26;9.50;63.40
22633;DHT22;11483;55.828;37.488;2023-05-10T01:58:54;9.50;63.50
22633;DHT22;11483;55.828;37.488;2023-05-10T02:01:21;9.50;63.90
22633;DHT22;11483;55.828;37.488;2023-05-10T02:03:50;9.40;64.00
22633;DHT22;11483;55.828;37.488;2023-05-10T02:06:18;9.40;63.90
22633;DHT22;11483;55.828;37.488;2023-05-10T02:08:46;9.40;64.30
22633;DHT22;11483;55.828;37.488;2023-05-10T02:11:13;9.50;64.80
22633;DHT22;11483;55.828;37.488;2023-05-10T02:13:39;9.50;64.80
22633;DHT22;11483;55.828;37.488;2023-05-10T02:16:07;9.40;64.60
22633;DHT22;11483;55.828;37.488;2023-05-10T02:18:34;9.40;65.10
22633;DHT22;11483;55.828;37.488;2023-05-10T02:21:02;9.40;65.40
22633;DHT22;11483;55.828;37.488;2023-05-10T02:23:29;9.40;65.60
22633;DHT22;11483;55.828;37.488;2023-05-10T02:25:57;9.50;65.50
22633;DHT22;11483;55.828;37.488;2023-05-10T02:28:24;9.50;65.80
22633;DHT22;11483;55.828;37.488;2023-05-10T02:30:51;9.50;65.70
22633;DHT22;11483;55.828;37.488;2023-05-10T02:33:19;9.50;65.80
22633;DHT22;11483;55.828;37.488;2023-05-10T02:35:46;9.50;65.40
22633;DHT22;11483;55.828;37.488;2023-05-10T02:38:14;9.50;66.10
22633;DHT22;11483;55.828;37.488;2023-05-10T02:40:41;9.50;66.10
22633;DHT22;11483;55.828;37.488;2023-05-10T02:43:12;9.50;67.10
22633;DHT22;11483;55.828;37.488;2023-05-10T02:45:40;9.60;67.10
22633;DHT22;11483;55.828;37.488;2023-05-10T02:48:07;9.70;66.80
22633;DHT22;11483;55.828;37.488;2023-05-10T02:50:33;9.60;66.40
22633;DHT22;11483;55.828;37.488;2023-05-10T02:53:03;9.60;66.50
22633;DHT22;11483;55.828;37.488;2023-05-10T02:55:37;9.70;66.80
22633;DHT22;11483;55.828;37.488;2023-05-10T02:58:04;9.70;67.00
22633;DHT22;11483;55.828;37.488;2023-05-10T03:00:31;9.90;66.80
22633;DHT22;11483;55.828;37.488;2023-05-10T03:02:56;9.80;66.90
22633;DHT22;11483;55.828;37.488;2023-05-10T03:05:22;9.90;65.50
22633;DHT22;11483;55.828;37.488;2023-05-10T03:07:49;9.90;64.90
22633;DHT22;11483;55.828;37.488;2023-05-10T03:10:15;10.00;64.40
22633;DHT22;11483;55.828;37.488;2023-05-10T03:13:07;10.00;66.00
22633;DHT22;11483;55.828;37.488;2023-05-10T03:18:23;10.10;66.80
22633;DHT22;11483;55.828;37.488;2023-05-10T03:21:02;10.10;66.70
22633;DHT22;11483;55.828;37.488;2023-05-10T03:24:06;10.10;66.80
22633;DHT22;11483;55.828;37.488;2023-05-10T03:27:23;10.20;66.60
22633;DHT22;11483;55.828;37.488;2023-05-10T03:30:20;10.20;66.40
22633;DHT22;11483;55.828;37.488;2023-05-10T03:32:46;10.20;66.70
22633;DHT22;11483;55.828;37.488;2023-05-10T03:35:12;10.20;66.60
22633;DHT22;11483;55.828;37.488;2023-05-10T03:37:41;10.30;66.00
22633;DHT22;11483;55.828;37.488;2023-05-10T03:40:07;10.30;65.30
22633;DHT22;11483;55.828;37.488;2023-05-10T03:42:34;10.50;65.50
22633;DHT22;11483;55.828;37.488;2023-05-10T03:45:00;10.60;65.90
22633;DHT22;11483;55.828;37.488;2023-05-10T03:47:25;10.70;64.70
22633;DHT22;11483;55.828;37.488;2023-05-10T03:49:51;10.80;64.80
22633;DHT22;11483;55.828;37.488;2023-05-10T03:52:17;10.80;64.80
22633;DHT22;11483;55.828;37.488;2023-05-10T03:54:43;10.80;65.40
22633;DHT22;11483;55.828;37.488;2023-05-10T03:57:09;10.90;65.20
22633;DHT22;11483;55.828;37.488;2023-05-10T03:59:35;11.00;64.80
22633;DHT22;11483;55.828;37.488;2023-05-10T04:02:01;11.10;64.10
22633;DHT22;11483;55.828;37.488;2023-05-10T04:04:27;11.10;62.60
22633;DHT22;11483;55.828;37.488;2023-05-10T04:06:53;11.30;62.30
22633;DHT22;11483;55.828;37.488;2023-05-10T04:09:20;11.40;62.30
22633;DHT22;11483;55.828;37.488;2023-05-10T04:11:46;11.40;63.50
22633;DHT22;11483;55.828;37.488;2023-05-10T04:14:12;11.40;62.60
22633;DHT22;11483;55.828;37.488;2023-05-10T04:16:38;11.50;61.30
22633;DHT22;11483;55.828;37.488;2023-05-10T04:19:04;11.70;60.80
22633;DHT22;11483;55.828;37.488;2023-05-10T04:21:30;11.80;60.40
22633;DHT22;11483;55.828;37.488;2023-05-10T04:23:56;11.90;62.40
22633;DHT22;11483;55.828;37.488;2023-05-10T04:26:22;11.90;61.60
22633;DHT22;11483;55.828;37.488;2023-05-10T04:28:48;12.00;62.10
22633;DHT22;11483;55.828;37.488;2023-05-10T04:31:13;12.00;62.10
22633;DHT22;11483;55.828;37.488;2023-05-10T04:33:40;12.10;61.30
22633;DHT22;11483;55.828;37.488;2023-05-10T04:36:06;12.10;63.40
22633;DHT22;11483;55.828;37.488;2023-05-10T04:38:32;12.30;62.50
22633;DHT22;11483;55.828;37.488;2023-05-10T04:41:07;12.40;62.30
22633;DHT22;11483;55.828;37.488;2023-05-10T04:43:34;12.40;63.30
22633;DHT22;11483;55.828;37.488;2023-05-10T04:46:00;12.60;64.10
22633;DHT22;11483;55.828;37.488;2023-05-10T04:48:26;12.70;62.20
22633;DHT22;11483;55.828;37.488;2023-05-10T04:50:52;12.80;63.50
22633;DHT22;11483;55.828;37.488;2023-05-10T04:53:18;12.80;60.90
22633;DHT22;11483;55.828;37.488;2023-05-10T04:55:44;12.90;62.10
22633;DHT22;11483;55.828;37.488;2023-05-10T04:58:09;12.90;60.80
22633;DHT22;11483;55.828;37.488;2023-05-10T05:00:35;13.00;64.10
22633;DHT22;11483;55.828;37.488;2023-05-10T05:03:01;13.10;61.80
22633;DHT22;11483;55.828;37.488;2023-05-10T05:05:27;13.30;62.60
22633;DHT22;11483;55.828;37.488;2023-05-10T05:07:53;13.40;62.50
22633;DHT22;11483;55.828;37.488;2023-05-10T05:10:18;13.50;63.10
22633;DHT22;11483;55.828;37.488;2023-05-10T05:12:44;13.70;62.50
22633;DHT22;11483;55.828;37.488;2023-05-10T05:15:10;13.80;61.70
22633;DHT22;11483;55.828;37.488;2023-05-10T05:17:37;14.00;62.80
22633;DHT22;11483;55.828;37.488;2023-05-10T05:20:03;14.10;61.90
22633;DHT22;11483;55.828;37.488;2023-05-10T05:22:29;14.20;62.10
22633;DHT22;11483;55.828;37.488;2023-05-10T05:24:55;14.30;61.60
22633;DHT22;11483;55.828;37.488;2023-05-10T05:27:22;14.50;60.60
22633;DHT22;11483;55.828;37.488;2023-05-10T05:29:53;14.50;60.00
22633;DHT22;11483;55.828;37.488;2023-05-10T05:32:19;14.60;59.60
22633;DHT22;11483;55.828;37.488;2023-05-10T05:34:45;14.70;60.20
22633;DHT22;11483;55.828;37.488;2023-05-10T05:37:15;14.60;60.60
22633;DHT22;11483;55.828;37.488;2023-05-10T05:39:41;14.80;60.30
22633;DHT22;11483;55.828;37.488;2023-05-10T05:42:08;14.90;60.40
22633;DHT22;11483;55.828;37.488;2023-05-10T05:44:35;14.90;60.30
22633;DHT22;11483;55.828;37.488;2023-05-10T05:47:00;14.90;60.90
22633;DHT22;11483;55.828;37.488;2023-05-10T05:49:26;15.00;60.20
22633;DHT22;11483;55.828;37.488;2023-05-10T05:51:52;15.00;60.10
22633;DHT22;11483;55.828;37.488;2023-05-10T05:54:18;15.10;59.80
22633;DHT22;11483;55.828;37.488;2023-05-10T05:56:44;15.10;60.10
22633;DHT22;11483;55.828;37.488;2023-05-10T05:59:10;15.10;59.60
22633;DHT22;11483;55.828;37.488;2023-05-10T06:01:36;15.30;60.10
22633;DHT22;11483;55.828;37.488;2023-05-10T06:04:02;15.50;60.10
22633;DHT22;11483;55.828;37.488;2023-05-10T06:06:28;15.70;59.70
22633;DHT22;11483;55.828;37.488;2023-05-10T06:08:54;16.00;59.70
22633;DHT22;11483;55.828;37.488;2023-05-10T06:11:20;16.10;57.90
22633;DHT22;11483;55.828;37.488;2023-05-10T06:13:47;16.10;57.80
22633;DHT22;11483;55.828;37.488;2023-05-10T06:16:13;16.50;57.80
22633;DHT22;11483;55.828;37.488;2023-05-10T06:18:39;16.80;57.10
22633;DHT22;11483;55.828;37.488;2023-05-10T06:21:05;16.90;56.30
22633;DHT22;11483;55.828;37.488;2023-05-10T06:23:30;17.20;56.20
22633;DHT22;11483;55.828;37.488;2023-05-10T06:25:57;17.20;55.30
22633;DHT22;11483;55.828;37.488;2023-05-10T06:28:22;17.30;55.20
22633;DHT22;11483;55.828;37.488;2023-05-10T06:30:48;17.50;55.70
22633;DHT22;11483;55.828;37.488;2023-05-10T06:33:14;17.40;55.00
22633;DHT22;11483;55.828;37.488;2023-05-10T06:36:23;17.60;54.90
22633;DHT22;11483;55.828;37.488;2023-05-10T06:39:24;17.50;54.00
22633;DHT22;11483;55.828;37.488;2023-05-10T06:41:50;17.40;53.80
22633;DHT22;11483;55.828;37.488;2023-05-10T06:45:16;17.80;54.40
22633;DHT22;11483;55.828;37.488;2023-05-10T06:47:42;18.00;54.00
22633;DHT22;11483;55.828;37.488;2023-05-10T06:50:09;18.20;53.40
22633;DHT22;11483;55.828;37.488;2023-05-10T06:52:35;18.50;53.20
22633;DHT22;11483;55.828;37.488;2023-05-10T06:55:01;18.60;53.00
22633;DHT22;11483;55.828;37.488;2023-05-10T06:57:28;18.40;53.20
22633;DHT22;11483;55.828;37.488;2023-05-10T06:59:54;18.20;52.20
22633;DHT22;11483;55.828;37.488;2023-05-10T07:02:22;18.10;52.90
22633;DHT22;11483;55.828;37.488;2023-05-10T07:04:48;17.70;53.90
22633;DHT22;11483;55.828;37.488;2023-05-10T07:07:14;17.80;53.60
22633;DHT22;11483;55.828;37.488;2023-05-10T07:09:40;17.80;53.30
22633;DHT22;11483;55.828;37.488;2023-05-10T07:12:06;17.70;53.90
22633;DHT22;11483;55.828;37.488;2023-05-10T07:14:32;18.00;54.30
22633;DHT22;11483;55.828;37.488;2023-05-10T07:16:58;18.30;53.00
22633;DHT22;11483;55.828;37.488;2023-05-10T07:19:24;18.40;53.00
22633;DHT22;11483;55.828;37.488;2023-05-10T07:21:49;18.30;53.10
22633;DHT22;11483;55.828;37.488;2023-05-10T07:24:16;18.30;53.00
22633;DHT22;11483;55.828;37.488;2023-05-10T07:26:42;18.30;52.10
22633;DHT22;11483;55.828;37.488;2023-05-10T07:29:08;18.40;52.90
22633;DHT22;11483;55.828;37.488;2023-05-10T07:31:33;18.90;52.50
22633;DHT22;11483;55.828;37.488;2023-05-10T07:33:59;19.50;52.50
22633;DHT22;11483;55.828;37.488;2023-05-10T07:36:25;19.30;50.80
22633;DHT22;11483;55.828;37.488;2023-05-10T07:38:51;19.70;51.20
22633;DHT22;11483;55.828;37.488;2023-05-10T07:41:17;20.20;50.50
22633;DHT22;11483;55.828;37.488;2023-05-10T07:43:43;20.20;50.40
22633;DHT22;11483;55.828;37.488;2023-05-10T07:46:09;20.30;49.70
22633;DHT22;11483;55.828;37.488;2023-05-10T07:48:37;20.70;49.40
22633;DHT22;11483;55.828;37.488;2023-05-10T07:51:03;20.70;47.70
22633;DHT22;11483;55.828;37.488;2023-05-10T07:53:28;20.40;48.10
22633;DHT22;11483;55.828;37.488;2023-05-10T07:55:57;20.50;47.90
22633;DHT22;11483;55.828;37.488;2023-05-10T07:58:26;20.50;47.70
22633;DHT22;11483;55.828;37.488;2023-05-10T08:00:52;20.70;47.80
22633;DHT22;11483;55.828;37.488;2023-05-10T08:03:18;20.80;46.80
22633;DHT22;11483;55.828;37.488;2023-05-10T08:05:44;21.00;47.20
22633;DHT22;11483;55.828;37.488;2023-05-10T08:08:10;21.10;47.20
22633;DHT22;11483;55.828;37.488;2023-05-10T08:10:35;20.90;45.90
22633;DHT22;11483;55.828;37.488;2023-05-10T08:13:01;21.10;45.80
22633;DHT22;11483;55.828;37.488;2023-05-10T08:15:27;21.20;45.00
22633;DHT22;11483;55.828;37.488;2023-05-10T08:17:53;21.30;44.90
22633;DHT22;11483;55.828;37.488;2023-05-10T08:20:20;21.40;44.70
22633;DHT22;11483;55.828;37.488;2023-05-10T08:22:46;21.70;44.50
22633;DHT22;11483;55.828;37.488;2023-05-10T08:25:12;21.90;44.80
22633;DHT22;11483;55.828;37.488;2023-05-10T08:27:38;22.00;43.30
22633;DHT22;11483;55.828;37.488;2023-05-10T08:30:04;21.80;43.30
22633;DHT22;11483;55.828;37.488;2023-05-10T08:32:31;21.20;43.60
22633;DHT22;11483;55.828;37.488;2023-05-10T08:34:56;21.50;44.20
22633;DHT22;11483;55.828;37.488;2023-05-10T08:37:23;22.70;43.00
22633;DHT22;11483;55.828;37.488;2023-05-10T08:39:49;24.40;41.90
22633;DHT22;11483;55.828;37.488;2023-05-10T08:42:16;25.90;40.70
22633;DHT22;11483;55.828;37.488;2023-05-10T08:44:44;27.10;37.90
22633;DHT22;11483;55.828;37.488;2023-05-10T08:47:13;28.00;39.40
22633;DHT22;11483;55.828;37.488;2023-05-10T08:49:41;29.30;38.90
22633;DHT22;11483;55.828;37.488;2023-05-10T08:52:07;30.00;34.70
22633;DHT22;11483;55.828;37.488;2023-05-10T08:54:33;29.80;34.60
22633;DHT22;11483;55.828;37.488;2023-05-10T08:57:00;30.30;35.50
22633;DHT22;11483;55.828;37.488;2023-05-10T08:59:27;31.90;35.10
22633;DHT22;11483;55.828;37.488;2023-05-10T09:01:56;31.60;34.20
22633;DHT22;11483;55.828;37.488;2023-05-10T09:04:23;31.80;33.80
22633;DHT22;11483;55.828;37.488;2023-05-10T09:06:48;32.80;33.60
22633;DHT22;11483;55.828;37.488;2023-05-10T09:09:15;33.40;31.80
22633;DHT22;11483;55.828;37.488;2023-05-10T09:11:42;33.80;30.80
22633;DHT22;11483;55.828;37.488;2023-05-10T09:14:08;32.60;31.40
22633;DHT22;11483;55.828;37.488;2023-05-10T09:16:35;32.90;31.50
22633;DHT22;11483;55.828;37.488;2023-05-10T09:19:00;33.10;30.50
22633;DHT22;11483;55.828;37.488;2023-05-10T09:21:26;31.70;30.10
22633;DHT22;11483;55.828;37.488;2023-05-10T09:23:52;28.40;31.70
22633;DHT22;11483;55.828;37.488;2023-05-10T09:26:23;26.70;33.30
22633;DHT22;11483;55.828;37.488;2023-05-10T09:28:57;26.00;34.10
22633;DHT22;11483;55.828;37.488;2023-05-10T09:31:23;25.60;34.80
22633;DHT22;11483;55.828;37.488;2023-05-10T09:33:51;25.50;35.30
22633;DHT22;11483;55.828;37.488;2023-05-10T09:36:17;26.30;35.70
22633;DHT22;11483;55.828;37.488;2023-05-10T09:38:51;27.70;35.10
22633;DHT22;11483;55.828;37.488;2023-05-10T09:41:19;29.00;33.50
22633;DHT22;11483;55.828;37.488;2023-05-10T09:43:45;29.50;32.90
22633;DHT22;11483;55.828;37.488;2023-05-10T09:46:11;29.10;33.40
22633;DHT22;11483;55.828;37.488;2023-05-10T09:48:47;28.30;33.40
22633;DHT22;11483;55.828;37.488;2023-05-10T09:51:20;26.70;34.20
22633;DHT22;11483;55.828;37.488;2023-05-10T09:53:46;25.90;35.00
22633;DHT22;11483;55.828;37.488;2023-05-10T09:56:12;24.90;36.20
22633;DHT22;11483;55.828;37.488;2023-05-10T09:58:46;24.20;36.90
22633;DHT22;11483;55.828;37.488;2023-05-10T10:01:30;23.80;37.50
22633;DHT22;11483;55.828;37.488;2023-05-10T10:03:56;23.80;37.80
22633;DHT22;11483;55.828;37.488;2023-05-10T10:06:24;23.80;37.50
22633;DHT22;11483;55.828;37.488;2023-05-10T10:08:51;22.90;37.60
22633;DHT22;11483;55.828;37.488;2023-05-10T10:11:17;22.50;38.30
22633;DHT22;11483;55.828;37.488;2023-05-10T10:13:43;22.40;38.50
22633;DHT22;11483;55.828;37.488;2023-05-10T10:16:09;21.50;39.60
22633;DHT22;11483;55.828;37.488;2023-05-10T10:18:36;20.60;40.80
22633;DHT22;11483;55.828;37.488;2023-05-10T10:21:08;20.10;41.60
22633;DHT22;11483;55.828;37.488;2023-05-10T10:23:37;19.70;42.10
22633;DHT22;11483;55.828;37.488;2023-05-10T10:26:04;19.50;42.60
22633;DHT22;11483;55.828;37.488;2023-05-10T10:28:56;19.40;42.70
22633;DHT22;11483;55.828;37.488;2023-05-10T10:31:26;19.50;42.70
22633;DHT22;11483;55.828;37.488;2023-05-10T10:34:07;19.60;43.30
22633;DHT22;11483;55.828;37.488;2023-05-10T10:37:03;19.60;42.60
22633;DHT22;11483;55.828;37.488;2023-05-10T10:39:30;20.10;42.80
22633;DHT22;11483;55.828;37.488;2023-05-10T10:41:57;20.00;42.60
22633;DHT22;11483;55.828;37.488;2023-05-10T10:44:34;20.00;42.40
22633;DHT22;11483;55.828;37.488;2023-05-10T10:49:49;19.60;43.30
22633;DHT22;11483;55.828;37.488;2023-05-10T10:52:27;19.90;42.90
22633;DHT22;11483;55.828;37.488;2023-05-10T10:55:12;20.30;42.60
22633;DHT22;11483;55.828;37.488;2023-05-10T10:57:49;20.40;42.40
22633;DHT22;11483;55.828;37.488;2023-05-10T11:00:21;20.90;42.00
22633;DHT22;11483;55.828;37.488;2023-05-10T11:02:59;21.30;41.20
22633;DHT22;11483;55.828;37.488;2023-05-10T11:05:47;22.60;41.10
22633;DHT22;11483;55.828;37.488;2023-05-10T11:08:34;23.40;39.60
22633;DHT22;11483;55.828;37.488;2023-05-10T11:13:55;23.80;39.00
22633;DHT22;11483;55.828;37.488;2023-05-10T11:16:28;23.70;39.60
22633;DHT22;11483;55.828;37.488;2023-05-10T11:19:13;23.70;39.10
22633;DHT22;11483;55.828;37.488;2023-05-10T11:22:12;23.10;38.80
22633;DHT22;11483;55.828;37.488;2023-05-10T11:24:39;22.10;39.50
22633;DHT22;11483;55.828;37.488;2023-05-10T11:27:05;21.70;40.00
22633;DHT22;11483;55.828;37.488;2023-05-10T11:29:31;21.30;40.50
22633;DHT22;11483;55.828;37.488;2023-05-10T11:31:58;21.20;41.40
22633;DHT22;11483;55.828;37.488;2023-05-10T11:34:26;21.30;41.70
22633;DHT22;11483;55.828;37.488;2023-05-10T11:36:54;21.20;41.30
22633;DHT22;11483;55.828;37.488;2023-05-10T11:39:21;20.70;42.60
22633;DHT22;11483;55.828;37.488;2023-05-10T11:41:50;20.30;42.80
22633;DHT22;11483;55.828;37.488;2023-05-10T11:44:16;20.00;43.20
22633;DHT22;11483;55.828;37.488;2023-05-10T11:46:42;20.10;43.10
22633;DHT22;11483;55.828;37.488;2023-05-10T11:49:08;20.60;42.80
22633;DHT22;11483;55.828;37.488;2023-05-10T11:51:37;21.10;42.20
22633;DHT22;11483;55.828;37.488;2023-05-10T11:54:08;21.90;42.00
22633;DHT22;11483;55.828;37.488;2023-05-10T11:56:36;22.00;40.90
22633;DHT22;11483;55.828;37.488;2023-05-10T11:59:01;22.20;40.40
22633;DHT22;11483;55.828;37.488;2023-05-10T12:01:28;22.50;40.60
22633;DHT22;11483;55.828;37.488;2023-05-10T12:03:57;22.60;40.40
22633;DHT22;11483;55.828;37.488;2023-05-10T12:06:31;22.80;40.50
22633;DHT22;11483;55.828;37.488;2023-05-10T12:08:57;22.60;39.50
22633;DHT22;11483;55.828;37.488;2023-05-10T12:11:28;22.10;40.50
22633;DHT22;11483;55.828;37.488;2023-05-10T12:13:55;21.70;41.20
22633;DHT22;11483;55.828;37.488;2023-05-10T12:16:28;21.50;41.40
22633;DHT22;11483;55.828;37.488;2023-05-10T12:18:56;21.20;41.30
22633;DHT22;11483;55.828;37.488;2023-05-10T12:21:23;21.10;41.70
22633;DHT22;11483;55.828;37.488;2023-05-10T12:23:56;21.20;41.80
22633;DHT22;11483;55.828;37.488;2023-05-10T12:26:25;21.40;42.40
22633;DHT22;11483;55.828;37.488;2023-05-10T12:28:53;21.30;42.60
22633;DHT22;11483;55.828;37.488;2023-05-10T12:31:19;21.30;42.20
22633;DHT22;11483;55.828;37.488;2023-05-10T12:33:45;21.30;43.50
22633;DHT22;11483;55.828;37.488;2023-05-10T12:36:14;20.80;42.20
22633;DHT22;11483;55.828;37.488;2023-05-10T12:38:46;20.30;42.90
22633;DHT22;11483;55.828;37.488;2023-05-10T12:41:17;20.20;44.20
22633;DHT22;11483;55.828;37.488;2023-05-10T12:43:43;20.40;45.60
22633;DHT22;11483;55.828;37.488;2023-05-10T12:46:16;20.40;44.40
22633;DHT22;11483;55.828;37.488;2023-05-10T12:48:43;20.30;44.10
22633;DHT22;11483;55.828;37.488;2023-05-10T12:51:09;20.30;43.30
22633;DHT22;11483;55.828;37.488;2023-05-10T12:53:41;20.10;43.40
22633;DHT22;11483;55.828;37.488;2023-05-10T12:56:07;19.80;43.90
22633;DHT22;11483;55.828;37.488;2023-05-10T12:58:33;19.50;44.60
22633;DHT22;11483;55.828;37.488;2023-05-10T13:00:59;19.60;46.50
22633;DHT22;11483;55.828;37.488;2023-05-10T13:03:25;19.70;45.00
22633;DHT22;11483;55.828;37.488;2023-05-10T13:05:51;19.50;44.60
22633;DHT22;11483;55.828;37.488;2023-05-10T13:08:17;19.30;44.90
22633;DHT22;11483;55.828;37.488;2023-05-10T13:11:09;19.00;44.80
22633;DHT22;11483;55.828;37.488;2023-05-10T13:13:35;18.80;45.10
22633;DHT22;11483;55.828;37.488;2023-05-10T13:19:34;18.70;45.50
22633;DHT22;11483;55.828;37.488;2023-05-10T13:22:17;18.80;45.60
22633;DHT22;11483;55.828;37.488;2023-05-10T13:24:45;18.90;45.80
22633;DHT22;11483;55.828;37.488;2023-05-10T13:27:11;19.20;46.00
22633;DHT22;11483;55.828;37.488;2023-05-10T13:29:37;19.40;45.30
22633;DHT22;11483;55.828;37.488;2023-05-10T13:32:03;19.50;45.50
22633;DHT22;11483;55.828;37.488;2023-05-10T13:34:29;19.50;45.30
22633;DHT22;11483;55.828;37.488;2023-05-10T13:36:55;19.20;45.30
22633;DHT22;11483;55.828;37.488;2023-05-10T13:39:22;19.10;45.40
22633;DHT22;11483;55.828;37.488;2023-05-10T13:41:48;19.10;46.10
22633;DHT22;11483;55.828;37.488;2023-05-10T13:44:14;19.30;45.60
22633;DHT22;11483;55.828;37.488;2023-05-10T13:46:41;19.60;45.10
22633;DHT22;11483;55.828;37.488;2023-05-10T13:49:09;19.90;45.10
22633;DHT22;11483;55.828;37.488;2023-05-10T13:51:35;20.10;44.80
22633;DHT22;11483;55.828;37.488;2023-05-10T13:54:02;20.40;44.40
22633;DHT22;11483;55.828;37.488;2023-05-10T13:56:28;20.50;44.40
22633;DHT22;11483;55.828;37.488;2023-05-10T13:58:54;20.40;44.30
22633;DHT22;11483;55.828;37.488;2023-05-10T14:01:20;20.20;44.20
22633;DHT22;11483;55.828;37.488;2023-05-10T14:03:45;19.90;44.70
22633;DHT22;11483;55.828;37.488;2023-05-10T14:06:11;19.80;44.80
22633;DHT22;11483;55.828;37.488;2023-05-10T14:08:37;19.80;44.80
22633;DHT22;11483;55.828;37.488;2023-05-10T14:11:03;19.80;45.30
22633;DHT22;11483;55.828;37.488;2023-05-10T14:13:29;19.80;46.50
22633;DHT22;11483;55.828;37.488;2023-05-10T14:15:55;20.00;45.90
22633;DHT22;11483;55.828;37.488;2023-05-10T14:18:21;20.00;47.70
22633;DHT22;11483;55.828;37.488;2023-05-10T14:20:47;20.10;47.70
22633;DHT22;11483;55.828;37.488;2023-05-10T14:23:12;19.80;45.30
22633;DHT22;11483;55.828;37.488;2023-05-10T14:25:40;19.50;45.80
22633;DHT22;11483;55.828;37.488;2023-05-10T14:28:06;19.40;45.80
22633;DHT22;11483;55.828;37.488;2023-05-10T14:30:32;19.20;45.90
22633;DHT22;11483;55.828;37.488;2023-05-10T14:33:00;19.20;45.70
22633;DHT22;11483;55.828;37.488;2023-05-10T14:35:27;19.20;45.60
22633;DHT22;11483;55.828;37.488;2023-05-10T14:37:53;19.20;46.10
22633;DHT22;11483;55.828;37.488;2023-05-10T14:40:19;19.20;49.30
22633;DHT22;11483;55.828;37.488;2023-05-10T14:42:45;19.20;49.70
22633;DHT22;11483;55.828;37.488;2023-05-10T14:45:11;19.10;48.50
22633;DHT22;11483;55.828;37.488;2023-05-10T14:47:37;19.10;50.00
22633;DHT22;11483;55.828;37.488;2023-05-10T14:50:03;19.00;50.10
22633;DHT22;11483;55.828;37.488;2023-05-10T14:52:29;19.00;51.20
22633;DHT22;11483;55.828;37.488;2023-05-10T14:54:55;18.90;48.70
22633;DHT22;11483;55.828;37.488;2023-05-10T14:57:21;18.80;50.00
22633;DHT22;11483;55.828;37.488;2023-05-10T14:59:47;18.60;49.50
22633;DHT22;11483;55.828;37.488;2023-05-10T15:02:13;18.50;49.60
22633;DHT22;11483;55.828;37.488;2023-05-10T15:04:39;18.40;49.20
22633;DHT22;11483;55.828;37.488;2023-05-10T15:07:05;18.40;48.70
22633;DHT22;11483;55.828;37.488;2023-05-10T15:09:31;18.40;48.70
22633;DHT22;11483;55.828;37.488;2023-05-10T15:11:57;18.40;49.10
22633;DHT22;11483;55.828;37.488;2023-05-10T15:14:23;18.20;49.50
22633;DHT22;11483;55.828;37.488;2023-05-10T15:16:49;18.10;49.00
22633;DHT22;11483;55.828;37.488;2023-05-10T15:19:15;18.10;49.50
22633;DHT22;11483;55.828;37.488;2023-05-10T15:21:40;17.90;49.30
22633;DHT22;11483;55.828;37.488;2023-05-10T15:24:08;18.00;49.60
22633;DHT22;11483;55.828;37.488;2023-05-10T15:26:35;18.10;49.50
22633;DHT22;11483;55.828;37.488;2023-05-10T15:29:00;18.00;49.60
22633;DHT22;11483;55.828;37.488;2023-05-10T15:31:26;17.90;49.30
22633;DHT22;11483;55.828;37.488;2023-05-10T15:33:57;18.00;51.20
22633;DHT22;11483;55.828;37.488;2023-05-10T15:36:24;17.90;51.70
22633;DHT22;11483;55.828;37.488;2023-05-10T15:38:50;17.90;51.20
22633;DHT22;11483;55.828;37.488;2023-05-10T15:41:16;17.80;50.80
22633;DHT22;11483;55.828;37.488;2023-05-10T15:43:42;17.70;50.00
22633;DHT22;11483;55.828;37.488;2023-05-10T15:46:08;17.70;50.30
22633;DHT22;11483;55.828;37.488;2023-05-10T15:48:34;17.50;50.40
22633;DHT22;11483;55.828;37.488;2023-05-10T15:51:00;17.50;50.40
22633;DHT22;11483;55.828;37.488;2023-05-10T15:53:25;17.50;50.70
22633;DHT22;11483;55.828;37.488;2023-05-10T15:55:51;17.50;50.90
22633;DHT22;11483;55.828;37.488;2023-05-10T15:58:18;17.60;50.70